Time;durP1;ratioP1;P1;durP2;ratioP2;P2;SDS_P1;SDS_P2;PMS_P1;PMS_P2;Temp;Humidity;BMP_temperature;BMP_pressure;BME280_temperature;BME280_humidity;BME280_pressure;Samples;Min_cycle;Max_cycle;Signal;HPM_P1;HPM_P2
2020/12/11 00:02:07;;;;;;;;;;;;;;;5.01;62.70;94235.50;5033120;28;19924;-71
2020/12/11 00:04:32;;;;;;;;;;;;;;;5.04;62.82;94230.44;5033788;28;19921;-71
2020/12/11 00:06:58;;;;;;;;;;;;;;;5.06;62.71;94230.13;5032405;28;20278;-71
2020/12/11 00:09:24;;;;;;;;;;;;;;;5.03;62.72;94226.25;5033273;28;20068;-72
2020/12/11 00:11:49;;;;;;;;;;;;;;;5.05;62.89;94224.09;5031950;28;19917;-71
2020/12/11 00:14:14;;;;;;;;;;;;;;;5.05;62.42;94226.72;5032180;28;19921;-71
2020/12/11 00:16:39;;;;;;;;;;;;;;;5.08;62.98;94228.00;5033497;28;19923;-72
2020/12/11 00:19:05;;;;;;;;;;;;;;;5.08;62.62;94220.09;5033275;28;19918;-72
2020/12/11 00:21:37;;;;;;;;;;;;;;;5.10;62.02;94226.63;5032020;28;19917;-72
2020/12/11 00:24:02;;;;;;;;;;;;;;;5.11;61.90;94227.41;5033652;28;20462;-71
2020/12/11 00:26:27;;;;;;;;;;;;;;;5.15;61.79;94234.44;5033278;28;19952;-72
2020/12/11 00:28:52;;;;;;;;;;;;;;;5.12;61.77;94224.50;5031469;28;19917;-72
2020/12/11 00:31:22;;;;;;;;;;;;;;;5.12;61.18;94229.00;5032856;28;20398;-75
2020/12/11 00:33:48;;;;;;;;;;;;;;;5.10;60.96;94223.22;5032671;28;19939;-71
2020/12/11 00:36:13;;;;;;;;;;;;;;;5.08;61.32;94218.25;5031730;28;19917;-72
2020/12/11 00:38:38;;;;;;;;;;;;;;;4.55;60.83;94221.22;5031440;28;19939;-72
2020/12/11 00:41:03;;;;;;;;;;;;;;;4.79;61.29;94222.97;5032962;28;19917;-72
2020/12/11 00:43:28;;;;;;;;;;;;;;;4.85;61.71;94214.69;5032589;28;19917;-72
2020/12/11 00:45:53;;;;;;;;;;;;;;;4.91;61.59;94213.53;5032962;28;19920;-72
2020/12/11 00:48:19;;;;;;;;;;;;;;;4.97;61.51;94206.31;5031295;28;19917;-72
2020/12/11 00:50:44;;;;;;;;;;;;;;;5.02;61.54;94202.81;5032744;28;20370;-71
2020/12/11 00:53:09;;;;;;;;;;;;;;;5.06;61.39;94199.28;5032350;28;20382;-72
2020/12/11 00:55:34;;;;;;;;;;;;;;;5.07;61.10;94200.88;5032354;28;19917;-72
2020/12/11 00:57:59;;;;;;;;;;;;;;;5.10;60.99;94199.50;5032680;28;20401;-72
2020/12/11 01:00:25;;;;;;;;;;;;;;;5.11;61.65;94193.91;5032112;28;19963;-72
2020/12/11 01:02:50;;;;;;;;;;;;;;;5.12;61.26;94194.72;5031470;28;19955;-72
2020/12/11 01:05:15;;;;;;;;;;;;;;;5.10;61.47;94197.63;5031251;28;20354;-72
2020/12/11 01:07:40;;;;;;;;;;;;;;;5.10;61.64;94195.00;5032424;28;20482;-71
2020/12/11 01:10:06;;;;;;;;;;;;;;;5.10;61.62;94188.94;5032283;28;19956;-72
2020/12/11 01:12:31;;;;;;;;;;;;;;;5.12;61.57;94187.59;5032013;28;19924;-72
2020/12/11 01:14:56;;;;;;;;;;;;;;;5.11;62.00;94186.00;5032462;28;19967;-71
2020/12/11 01:17:21;;;;;;;;;;;;;;;5.10;61.53;94189.72;5032433;28;20013;-72
2020/12/11 01:19:47;;;;;;;;;;;;;;;5.09;61.93;94190.03;5031950;28;19921;-72
2020/12/11 01:22:12;;;;;;;;;;;;;;;5.08;62.16;94194.53;5030755;28;20375;-72
2020/12/11 01:24:38;;;;;;;;;;;;;;;5.08;61.96;94188.47;5031994;28;20387;-72
2020/12/11 01:27:03;;;;;;;;;;;;;;;5.05;62.00;94184.53;5032327;28;19924;-72
2020/12/11 01:29:28;;;;;;;;;;;;;;;5.05;62.08;94189.81;5030701;28;19920;-72
2020/12/11 01:31:57;;;;;;;;;;;;;;;5.06;61.95;94185.31;5029994;28;19921;-72
2020/12/11 01:34:22;;;;;;;;;;;;;;;5.06;62.33;94191.38;5032217;28;20071;-72
2020/12/11 01:36:48;;;;;;;;;;;;;;;5.04;62.17;94187.47;5032089;28;20414;-72
2020/12/11 01:39:13;;;;;;;;;;;;;;;5.00;62.18;94187.28;5031660;28;19923;-72
2020/12/11 01:41:38;;;;;;;;;;;;;;;5.01;61.92;94180.94;5031873;28;20004;-71
2020/12/11 01:44:10;;;;;;;;;;;;;;;5.05;62.12;94186.41;5031971;28;20003;-72
2020/12/11 01:46:40;;;;;;;;;;;;;;;5.07;61.90;94185.06;5032261;28;20383;-72
2020/12/11 01:49:05;;;;;;;;;;;;;;;5.03;61.85;94189.34;5030643;28;19917;-72
2020/12/11 01:51:31;;;;;;;;;;;;;;;5.03;62.09;94178.78;5031852;28;19983;-72
2020/12/11 01:53:57;;;;;;;;;;;;;;;5.04;61.71;94183.00;5030678;28;20012;-72
2020/12/11 01:56:25;;;;;;;;;;;;;;;5.05;62.00;94175.88;5030868;28;19921;-72
2020/12/11 01:58:52;;;;;;;;;;;;;;;5.02;61.97;94177.25;5030530;28;19917;-72
2020/12/11 02:01:17;;;;;;;;;;;;;;;4.99;62.33;94172.53;5030397;28;19952;-72
2020/12/11 02:03:43;;;;;;;;;;;;;;;4.99;62.20;94179.66;5031566;28;20398;-73
2020/12/11 02:06:09;;;;;;;;;;;;;;;4.99;62.54;94180.44;5031762;28;19932;-73
2020/12/11 02:08:34;;;;;;;;;;;;;;;4.98;62.39;94168.34;5031656;28;20047;-72
2020/12/11 02:10:59;;;;;;;;;;;;;;;5.00;62.11;94173.31;5030699;28;20389;-72
2020/12/11 02:13:24;;;;;;;;;;;;;;;5.00;61.97;94163.56;5031407;28;19917;-73
2020/12/11 02:15:50;;;;;;;;;;;;;;;4.99;61.71;94167.28;5033146;28;19917;-71
2020/12/11 02:18:15;;;;;;;;;;;;;;;4.97;61.93;94164.16;5035347;28;20379;-72
2020/12/11 02:20:40;;;;;;;;;;;;;;;4.90;62.10;94156.63;5035617;28;19921;-72
2020/12/11 02:23:05;;;;;;;;;;;;;;;4.89;62.20;94149.78;5035287;28;19913;-72
2020/12/11 02:25:31;;;;;;;;;;;;;;;4.86;62.09;94153.03;5035427;28;19917;-73
2020/12/11 02:27:56;;;;;;;;;;;;;;;4.80;62.31;94153.38;5035394;28;19917;-72
2020/12/11 02:30:21;;;;;;;;;;;;;;;4.67;62.22;94150.47;5033862;28;19921;-73
2020/12/11 02:32:46;;;;;;;;;;;;;;;4.59;62.94;94143.22;5034364;28;19960;-72
2020/12/11 02:35:12;;;;;;;;;;;;;;;4.59;63.04;94137.16;5034067;28;20378;-73
2020/12/11 02:37:37;;;;;;;;;;;;;;;4.59;63.42;94137.94;5035294;28;20003;-72
2020/12/11 02:40:04;;;;;;;;;;;;;;;4.62;62.88;94139.22;5035077;28;20579;-73
2020/12/11 02:42:29;;;;;;;;;;;;;;;4.61;63.06;94138.44;5033906;28;19939;-72
2020/12/11 02:44:54;;;;;;;;;;;;;;;4.59;63.21;94143.22;5035239;28;19921;-72
2020/12/11 02:47:19;;;;;;;;;;;;;;;4.61;63.16;94135.81;5033878;28;19921;-72
2020/12/11 02:49:44;;;;;;;;;;;;;;;4.61;63.16;94129.78;5034739;28;20364;-71
2020/12/11 02:52:10;;;;;;;;;;;;;;;4.63;63.02;94125.00;5034640;28;19921;-71
2020/12/11 02:54:35;;;;;;;;;;;;;;;4.67;63.14;94126.75;5033652;28;19917;-72
2020/12/11 02:57:00;;;;;;;;;;;;;;;4.68;62.92;94128.31;5034831;28;19925;-71
2020/12/11 02:59:26;;;;;;;;;;;;;;;4.70;62.89;94115.63;5034695;28;19937;-72
2020/12/11 03:01:51;;;;;;;;;;;;;;;4.70;62.89;94112.97;5032368;28;19917;-72
2020/12/11 03:04:16;;;;;;;;;;;;;;;4.69;62.75;94111.44;5032391;28;19933;-72
2020/12/11 03:06:41;;;;;;;;;;;;;;;4.74;62.95;94104.50;5034392;28;19922;-72
2020/12/11 03:09:06;;;;;;;;;;;;;;;4.74;62.63;94101.88;5034528;28;20285;-72
2020/12/11 03:11:32;;;;;;;;;;;;;;;4.71;62.74;94095.34;5033061;28;19961;-72
2020/12/11 03:13:57;;;;;;;;;;;;;;;4.69;63.36;94095.63;5033293;28;20363;-71
2020/12/11 03:16:23;;;;;;;;;;;;;;;4.68;63.51;94091.44;5034535;28;19955;-71
2020/12/11 03:18:48;;;;;;;;;;;;;;;4.61;63.62;94083.16;5034437;28;19917;-70
2020/12/11 03:21:13;;;;;;;;;;;;;;;4.57;63.75;94082.16;5032932;28;19925;-71
2020/12/11 03:23:39;;;;;;;;;;;;;;;4.52;64.16;94084.09;5034500;28;20331;-71
2020/12/11 03:26:04;;;;;;;;;;;;;;;4.47;64.19;94076.31;5034070;28;19924;-71
2020/12/11 03:28:30;;;;;;;;;;;;;;;4.40;64.36;94076.66;5034078;28;20363;-71
2020/12/11 03:30:59;;;;;;;;;;;;;;;4.36;64.53;94086.22;5034287;28;19921;-71
2020/12/11 03:33:24;;;;;;;;;;;;;;;4.31;64.90;94084.47;5032266;28;19917;-71
2020/12/11 03:35:50;;;;;;;;;;;;;;;4.30;65.08;94076.84;5034132;28;20614;-71
2020/12/11 03:38:15;;;;;;;;;;;;;;;4.29;65.17;94083.97;5033922;28;19959;-70
2020/12/11 03:40:40;;;;;;;;;;;;;;;4.28;65.39;94084.25;5034078;28;19917;-71
2020/12/11 03:43:05;;;;;;;;;;;;;;;4.24;65.53;94075.38;5033783;28;19979;-71
2020/12/11 03:45:30;;;;;;;;;;;;;;;4.21;64.89;94068.06;5032773;28;20399;-71
2020/12/11 03:47:55;;;;;;;;;;;;;;;4.11;65.33;94054.00;5033021;28;19918;-71
2020/12/11 03:50:21;;;;;;;;;;;;;;;4.02;65.44;94058.38;5033668;28;19917;-73
2020/12/11 03:52:46;;;;;;;;;;;;;;;3.97;65.66;94066.34;5031997;28;19921;-71
2020/12/11 03:55:11;;;;;;;;;;;;;;;3.84;65.86;94060.00;5032528;28;19928;-71
2020/12/11 03:57:36;;;;;;;;;;;;;;;3.65;65.83;94062.63;5033932;28;19971;-71
2020/12/11 04:00:02;;;;;;;;;;;;;;;3.47;66.37;94055.53;5033526;28;19927;-72
2020/12/11 04:02:28;;;;;;;;;;;;;;;3.31;66.96;94062.06;5032930;28;19924;-71
2020/12/11 04:04:53;;;;;;;;;;;;;;;3.18;67.05;94060.19;5033608;28;19913;-71
2020/12/11 04:07:18;;;;;;;;;;;;;;;3.02;67.63;94044.63;5033666;28;20283;-72
2020/12/11 04:09:43;;;;;;;;;;;;;;;2.84;67.75;94038.25;5033330;28;20008;-71
2020/12/11 04:12:08;;;;;;;;;;;;;;;2.65;68.24;94036.66;5031863;28;20292;-71
2020/12/11 04:14:34;;;;;;;;;;;;;;;2.49;68.52;94034.22;5033434;28;19965;-72
2020/12/11 04:16:59;;;;;;;;;;;;;;;2.34;69.05;94044.88;5033272;28;19933;-71
2020/12/11 04:19:25;;;;;;;;;;;;;;;2.20;68.96;94038.72;5031863;28;19921;-71
2020/12/11 04:21:50;;;;;;;;;;;;;;;2.08;69.80;94041.72;5032874;28;19978;-71
2020/12/11 04:24:16;;;;;;;;;;;;;;;1.87;71.15;94048.22;5033264;28;19917;-71
2020/12/11 04:26:41;;;;;;;;;;;;;;;1.82;70.61;94044.56;5033205;28;19917;-72
2020/12/11 04:29:06;;;;;;;;;;;;;;;1.73;71.06;94043.59;5033007;28;20374;-72
2020/12/11 04:31:32;;;;;;;;;;;;;;;1.67;71.49;94042.09;5031314;28;19925;-72
2020/12/11 04:33:57;;;;;;;;;;;;;;;1.59;71.43;94036.63;5031310;28;19918;-72
2020/12/11 04:36:22;;;;;;;;;;;;;;;1.52;71.26;94031.72;5032042;28;19971;-69
2020/12/11 04:38:47;;;;;;;;;;;;;;;1.43;72.03;94023.66;5030801;28;20016;-71
2020/12/11 04:41:13;;;;;;;;;;;;;;;1.37;72.25;94023.97;5032819;28;19918;-70
2020/12/11 04:43:39;;;;;;;;;;;;;;;1.30;72.16;94035.53;5033002;28;19917;-71
2020/12/11 04:46:05;;;;;;;;;;;;;;;1.25;72.56;94025.09;5031624;28;20275;-71
2020/12/11 04:48:31;;;;;;;;;;;;;;;1.19;72.83;94020.97;5032594;28;20636;-70
2020/12/11 04:50:56;;;;;;;;;;;;;;;1.16;73.00;94020.72;5032659;28;19928;-71
2020/12/11 04:53:24;;;;;;;;;;;;;;;1.12;73.40;94022.28;5032709;28;19941;-72
2020/12/11 04:55:52;;;;;;;;;;;;;;;1.12;74.00;94014.44;5031511;28;19924;-70
2020/12/11 04:58:17;;;;;;;;;;;;;;;1.07;73.71;94002.16;5032702;28;20004;-71
2020/12/11 05:00:43;;;;;;;;;;;;;;;1.07;74.36;94001.38;5031568;28;19959;-72
2020/12/11 05:03:15;;;;;;;;;;;;;;;1.07;74.85;93996.16;5031980;28;19940;-70
2020/12/11 05:05:40;;;;;;;;;;;;;;;1.13;75.07;93984.59;5032715;28;19917;-71
2020/12/11 05:08:18;;;;;;;;;;;;;;;1.21;75.04;93982.16;5032526;28;19917;-71
2020/12/11 05:10:45;;;;;;;;;;;;;;;1.32;74.88;93979.47;5031132;28;19917;-71
2020/12/11 05:13:22;;;;;;;;;;;;;;;1.45;75.12;93984.88;5032035;28;20374;-71
2020/12/11 05:16:08;;;;;;;;;;;;;;;1.65;74.45;93980.50;5032237;28;19917;-70
2020/12/11 05:18:34;;;;;;;;;;;;;;;1.81;74.06;93987.19;5030421;28;20035;-70
2020/12/11 05:21:17;;;;;;;;;;;;;;;1.95;73.65;93985.47;5032314;28;19971;-70
2020/12/11 05:23:59;;;;;;;;;;;;;;;2.11;73.35;93975.59;5032150;28;19916;-71
2020/12/11 05:26:25;;;;;;;;;;;;;;;2.22;72.82;93969.19;5031055;28;20413;-71
2020/12/11 05:28:50;;;;;;;;;;;;;;;2.39;72.52;93954.81;5030717;28;19917;-70
2020/12/11 05:31:15;;;;;;;;;;;;;;;2.41;71.79;93953.47;5031811;28;19913;-71
2020/12/11 05:33:59;;;;;;;;;;;;;;;2.55;71.32;93954.34;5031474;28;20409;-70
2020/12/11 05:36:25;;;;;;;;;;;;;;;2.65;71.33;93956.03;5030684;28;20374;-71
2020/12/11 05:38:50;;;;;;;;;;;;;;;2.76;70.36;93959.31;5030472;28;19932;-71
2020/12/11 05:41:30;;;;;;;;;;;;;;;2.84;70.56;93953.44;5031711;28;19917;-70
2020/12/11 05:43:55;;;;;;;;;;;;;;;2.92;70.23;93950.19;5031992;28;19918;-70
2020/12/11 05:46:27;;;;;;;;;;;;;;;2.98;69.40;93950.88;5030809;28;19924;-70
2020/12/11 05:48:52;;;;;;;;;;;;;;;3.05;69.36;93959.19;5032883;28;19929;-70
2020/12/11 05:51:18;;;;;;;;;;;;;;;3.10;68.48;93946.75;5035615;28;19921;-72
2020/12/11 05:53:43;;;;;;;;;;;;;;;3.11;68.92;93947.53;5035753;28;19921;-70
2020/12/11 05:56:08;;;;;;;;;;;;;;;3.17;68.24;93935.88;5036096;28;19944;-71
2020/12/11 05:58:34;;;;;;;;;;;;;;;3.23;68.39;93940.00;5034405;28;19913;-70
2020/12/11 06:00:59;;;;;;;;;;;;;;;3.26;68.25;93936.00;5035866;28;19917;-70
2020/12/11 06:03:25;;;;;;;;;;;;;;;3.27;67.53;93942.81;5034974;28;20527;-70
2020/12/11 06:05:50;;;;;;;;;;;;;;;3.32;67.53;93940.09;5034311;28;19959;-72
2020/12/11 06:08:19;;;;;;;;;;;;;;;2.50;67.16;93825.00;5035501;28;20331;-70
2020/12/11 06:10:48;;;;;;;;;;;;;;;3.25;67.06;93942.34;5035643;28;20278;-70
2020/12/11 06:13:14;;;;;;;;;;;;;;;3.21;67.39;93936.88;5034337;28;19917;-69
2020/12/11 06:15:47;;;;;;;;;;;;;;;3.17;67.03;93930.63;5035661;28;19917;-69
2020/12/11 06:18:23;;;;;;;;;;;;;;;3.22;67.37;93938.41;5035293;28;19947;-70
2020/12/11 06:20:52;;;;;;;;;;;;;;;3.01;66.70;93919.56;5035522;28;19917;-69
2020/12/11 06:23:17;;;;;;;;;;;;;;;3.04;67.28;93915.59;5034893;28;20000;-70
2020/12/11 06:25:48;;;;;;;;;;;;;;;3.05;67.41;93922.41;5035554;28;19959;-69
2020/12/11 06:28:33;;;;;;;;;;;;;;;3.13;67.86;93917.28;5035052;28;19921;-68
2020/12/11 06:30:58;;;;;;;;;;;;;;;3.11;67.63;93916.00;5035027;28;20406;-71
2020/12/11 06:33:28;;;;;;;;;;;;;;;3.08;67.17;93911.34;5034564;28;19917;-70
2020/12/11 06:35:57;;;;;;;;;;;;;;;2.97;67.53;93910.72;5035281;28;19948;-69
2020/12/11 06:38:37;;;;;;;;;;;;;;;3.00;67.11;93904.88;5025142;28;20008;-70
2020/12/11 06:41:02;;;;;;;;;;;;;;;3.03;67.38;93904.31;5034968;28;19922;-69
2020/12/11 06:43:44;;;;;;;;;;;;;;;3.10;68.09;93901.31;5034869;28;19919;-69
2020/12/11 06:46:09;;;;;;;;;;;;;;;3.11;67.37;93897.59;5033635;28;19918;-70
2020/12/11 06:48:34;;;;;;;;;;;;;;;3.16;67.83;93899.38;5034709;28;20382;-70
2020/12/11 06:51:03;;;;;;;;;;;;;;;3.10;67.34;93896.06;5034591;28;19929;-69
2020/12/11 06:53:40;;;;;;;;;;;;;;;3.10;67.75;93890.81;5034455;28;20438;-70
2020/12/11 06:56:06;;;;;;;;;;;;;;;3.01;67.64;93885.41;5033464;28;20059;-69
2020/12/11 06:58:31;;;;;;;;;;;;;;;2.91;67.69;93888.19;5034605;28;20390;-70
2020/12/11 07:00:57;;;;;;;;;;;;;;;3.00;67.59;93889.09;5033992;28;19929;-69
2020/12/11 07:03:26;;;;;;;;;;;;;;;3.00;67.52;93889.09;5033810;28;20363;-71
2020/12/11 07:05:55;;;;;;;;;;;;;;;3.04;67.24;93876.19;5034320;28;19917;-70
2020/12/11 07:08:20;;;;;;;;;;;;;;;3.01;67.40;93872.28;5033172;28;19924;-70
2020/12/11 07:10:46;;;;;;;;;;;;;;;2.87;67.77;93874.09;5034434;28;20474;-69
2020/12/11 07:13:11;;;;;;;;;;;;;;;2.93;68.21;93867.69;5032825;28;19940;-69
2020/12/11 07:15:37;;;;;;;;;;;;;;;2.93;67.89;93875.56;5033051;28;19917;-70
2020/12/11 07:18:03;;;;;;;;;;;;;;;3.02;67.08;93873.06;5032992;28;20419;-69
2020/12/11 07:20:29;;;;;;;;;;;;;;;2.99;67.44;93879.69;5033966;28;19994;-66
2020/12/11 07:22:59;;;;;;;;;;;;;;;3.02;66.80;93881.75;5033148;28;20004;-70
2020/12/11 07:25:24;;;;;;;;;;;;;;;2.97;66.84;93896.78;5034774;28;19924;-76
2020/12/11 07:27:57;;;;;;;;;;;;;;;2.79;67.31;93890.50;5034299;28;19917;-66
2020/12/11 07:30:22;;;;;;;;;;;;;;;2.77;67.75;93890.00;5033757;28;19917;-69
2020/12/11 07:32:51;;;;;;;;;;;;;;;2.67;67.37;93883.06;5033296;28;20008;-73
2020/12/11 07:35:16;;;;;;;;;;;;;;;2.65;68.37;93876.50;5033958;28;20020;-70
2020/12/11 07:37:48;;;;;;;;;;;;;;;2.66;68.77;93870.97;5032867;28;20019;-71
2020/12/11 07:40:13;;;;;;;;;;;;;;;2.68;68.75;93875.94;5032528;28;19957;-71
2020/12/11 07:42:41;;;;;;;;;;;;;;;2.72;68.74;93869.06;5033674;28;19921;-72
2020/12/11 07:45:07;;;;;;;;;;;;;;;2.74;68.25;93862.47;5033908;28;19922;-73
2020/12/11 07:47:33;;;;;;;;;;;;;;;2.78;68.42;93862.69;5033977;28;19921;-74
2020/12/11 07:50:04;;;;;;;;;;;;;;;2.81;68.13;93865.50;5033502;28;19918;-73
2020/12/11 07:52:32;;;;;;;;;;;;;;;2.84;68.25;93872.81;5032265;28;19921;-73
2020/12/11 07:54:57;;;;;;;;;;;;;;;2.88;68.28;93865.16;5034141;28;19917;-73
2020/12/11 07:57:23;;;;;;;;;;;;;;;2.99;67.76;93857.88;5033805;28;19975;-73
2020/12/11 07:59:58;;;;;;;;;;;;;;;3.05;67.97;93854.88;5032049;28;20442;-73
2020/12/11 08:02:24;;;;;;;;;;;;;;;2.93;67.60;93851.94;5031479;28;20291;-74
2020/12/11 08:04:49;;;;;;;;;;;;;;;3.04;67.31;93848.06;5032402;28;19913;-72
2020/12/11 08:07:30;;;;;;;;;;;;;;;3.05;67.59;93844.38;5033548;28;19924;-69
2020/12/11 08:10:11;;;;;;;;;;;;;;;3.21;67.52;93852.00;5033241;28;20294;-73
2020/12/11 08:12:37;;;;;;;;;;;;;;;3.26;66.87;93844.03;5031880;28;20359;-70
2020/12/11 08:15:03;;;;;;;;;;;;;;;3.37;66.83;93846.19;5033243;28;19953;-70
2020/12/11 08:17:29;;;;;;;;;;;;;;;3.48;66.60;93846.81;5031872;28;19917;-71
2020/12/11 08:19:58;;;;;;;;;;;;;;;3.61;66.08;93837.38;5031795;28;19924;-71
2020/12/11 08:22:29;;;;;;;;;;;;;;;3.68;65.79;93829.06;5033063;28;19928;-71
2020/12/11 08:24:54;;;;;;;;;;;;;;;3.71;65.33;93829.28;5033177;28;19917;-72
2020/12/11 08:27:21;;;;;;;;;;;;;;;3.79;65.21;93830.47;5033328;28;19921;-76
2020/12/11 08:30:07;;;;;;;;;;;;;;;3.92;64.98;93833.06;5033399;28;19917;-77
2020/12/11 08:32:32;;;;;;;;;;;;;;;4.05;64.14;93828.09;5031140;28;19941;-71
2020/12/11 08:34:58;;;;;;;;;;;;;;;4.27;63.98;93830.00;5031853;28;19917;-72
2020/12/11 08:37:23;;;;;;;;;;;;;;;4.48;63.51;93823.22;5031625;28;19924;-71
2020/12/11 08:39:48;;;;;;;;;;;;;;;4.69;63.14;93816.41;5032550;28;19917;-71
2020/12/11 08:42:51;;;;;;;;;;;;;;;4.86;61.92;93825.50;5032690;28;19917;-71
2020/12/11 08:50:44;;;;;;;;;;;;;;;4.90;61.34;93810.66;5032564;28;19967;-70
2020/12/11 08:53:11;;;;;;;;;;;;;;;4.99;60.72;93808.88;5032256;28;19923;-70
2020/12/11 08:55:37;;;;;;;;;;;;;;;5.08;60.71;93809.72;5032518;28;19948;-70
2020/12/11 08:58:02;;;;;;;;;;;;;;;4.98;60.80;93803.91;5031325;28;20418;-69
2020/12/11 09:00:27;;;;;;;;;;;;;;;5.05;60.86;93796.34;5030981;28;19944;-70
2020/12/11 09:02:52;;;;;;;;;;;;;;;5.20;60.72;93791.47;5031598;28;20286;-70
2020/12/11 09:05:18;;;;;;;;;;;;;;;5.12;60.39;93792.22;5030915;28;19921;-70
2020/12/11 09:07:43;;;;;;;;;;;;;;;5.26;59.85;93801.88;5031023;28;19974;-70
2020/12/11 09:10:09;;;;;;;;;;;;;;;5.35;59.68;93794.81;5030882;28;19921;-70
2020/12/11 09:12:34;;;;;;;;;;;;;;;5.24;59.75;93793.50;5030534;28;19921;-70
2020/12/11 09:14:59;;;;;;;;;;;;;;;5.26;60.23;93793.97;5032311;28;19917;-69
2020/12/11 09:17:24;;;;;;;;;;;;;;;5.28;59.67;93783.91;5032094;28;19917;-70
2020/12/11 09:19:50;;;;;;;;;;;;;;;5.29;59.82;93785.47;5030620;28;20420;-70
2020/12/11 09:22:15;;;;;;;;;;;;;;;5.42;59.70;93776.66;5031570;28;19933;-70
2020/12/11 09:24:40;;;;;;;;;;;;;;;5.44;58.96;93769.25;5031802;28;19920;-70
2020/12/11 09:27:07;;;;;;;;;;;;;;;5.62;59.25;93765.56;5032229;28;19953;-66
2020/12/11 09:29:38;;;;;;;;;;;;;;;5.80;58.89;93763.00;5031858;28;19917;-66
2020/12/11 09:32:05;;;;;;;;;;;;;;;5.93;59.20;93754.19;5031554;28;19967;-67
2020/12/11 09:34:34;;;;;;;;;;;;;;;6.00;58.85;93751.91;5031291;28;21587;-70
2020/12/11 09:37:00;;;;;;;;;;;;;;;6.02;57.83;93749.72;5030605;28;20011;-66
2020/12/11 09:39:25;;;;;;;;;;;;;;;5.96;58.22;93750.94;5031726;28;19917;-67
2020/12/11 09:41:58;;;;;;;;;;;;;;;6.07;58.15;93744.28;5030432;28;19918;-67
2020/12/11 09:44:48;;;;;;;;;;;;;;;6.19;58.57;93736.53;5031965;28;19917;-68
2020/12/11 09:48:07;;;;;;;;;;;;;;;6.16;57.13;93733.75;5032240;28;20290;-66
2020/12/11 09:52:38;;;;;;;;;;;;;;;6.26;56.69;93722.88;5031458;28;20012;-66
2020/12/11 09:55:03;;;;;;;;;;;;;;;6.42;57.40;93725.81;5032020;28;19921;-71
2020/12/11 09:57:29;;;;;;;;;;;;;;;6.59;56.42;93717.09;5031826;28;19917;-67
2020/12/11 09:59:56;;;;;;;;;;;;;;;6.66;56.52;93709.47;5031491;28;19918;-69
2020/12/11 10:05:05;;;;;;;;;;;;;;;6.69;56.35;93704.31;5031673;28;19925;-65
2020/12/11 10:07:30;;;;;;;;;;;;;;;6.75;56.13;93705.72;5031725;28;19917;-70
2020/12/11 10:09:55;;;;;;;;;;;;;;;6.85;55.98;93698.53;5031376;28;19923;-67
2020/12/11 10:12:23;;;;;;;;;;;;;;;6.95;55.90;93693.69;5030034;28;19917;-70
2020/12/11 10:14:54;;;;;;;;;;;;;;;6.84;55.64;93695.13;5030407;28;19924;-74
2020/12/11 10:17:19;;;;;;;;;;;;;;;6.95;55.75;93688.41;5030582;28;19917;-67
2020/12/11 10:19:48;;;;;;;;;;;;;;;7.04;55.53;93686.50;5030299;28;20047;-67
2020/12/11 10:22:13;;;;;;;;;;;;;;;7.12;55.27;93682.31;5030052;28;19925;-67
2020/12/11 10:24:39;;;;;;;;;;;;;;;7.19;55.05;93676.50;5030455;28;19962;-67
2020/12/11 10:27:04;;;;;;;;;;;;;;;7.24;54.75;93671.81;5031605;28;19917;-67
2020/12/11 10:29:29;;;;;;;;;;;;;;;7.31;54.93;93666.03;5031504;28;20294;-70
2020/12/11 10:31:54;;;;;;;;;;;;;;;7.45;54.55;93669.22;5030860;28;20011;-71
2020/12/11 10:34:19;;;;;;;;;;;;;;;7.53;53.64;93672.94;5031383;28;19917;-72
2020/12/11 10:36:45;;;;;;;;;;;;;;;7.50;54.04;93678.84;5033923;28;19917;-71
2020/12/11 10:39:10;;;;;;;;;;;;;;;7.47;53.74;93674.19;5035108;28;19921;-70
2020/12/11 10:41:36;;;;;;;;;;;;;;;7.24;53.01;93676.34;5034912;28;19924;-71
2020/12/11 10:44:01;;;;;;;;;;;;;;;6.80;53.46;93672.28;5035091;28;19917;-69
2020/12/11 10:46:27;;;;;;;;;;;;;;;6.98;54.14;93673.78;5033738;28;19917;-70
2020/12/11 10:48:52;;;;;;;;;;;;;;;6.94;54.24;93670.22;5034815;28;19925;-65
2020/12/11 10:51:17;;;;;;;;;;;;;;;6.94;54.46;93672.88;5034456;28;20402;-70
2020/12/11 10:53:43;;;;;;;;;;;;;;;6.94;54.64;93670.22;5034915;28;20406;-68
2020/12/11 10:56:09;;;;;;;;;;;;;;;7.07;54.06;93671.13;5034677;28;19921;-68
2020/12/11 10:58:34;;;;;;;;;;;;;;;7.09;54.51;93666.28;5034528;28;19924;-69
2020/12/11 11:01:02;;;;;;;;;;;;;;;7.12;54.29;93647.94;5034718;28;19952;-69
2020/12/11 11:03:28;;;;;;;;;;;;;;;7.22;53.53;93636.22;5033852;28;20371;-69
2020/12/11 11:05:54;;;;;;;;;;;;;;;7.30;53.67;93638.78;5034740;28;19924;-69
2020/12/11 11:08:20;;;;;;;;;;;;;;;7.35;53.92;93637.06;5034310;28;19921;-68
2020/12/11 11:10:48;;;;;;;;;;;;;;;7.25;53.76;93636.34;5033234;28;19968;-68
2020/12/11 11:13:22;;;;;;;;;;;;;;;7.37;53.38;93635.66;5034239;28;19917;-69
2020/12/11 11:15:53;;;;;;;;;;;;;;;7.30;53.21;93632.75;5034591;28;19924;-70
2020/12/11 11:24:21;;;;;;;;;;;;;;;7.58;52.61;93637.56;5033948;28;19921;-70
2020/12/11 11:29:04;;;;;;;;;;;;;;;7.77;52.54;93638.66;5011100;28;19971;-74
2020/12/11 11:31:29;;;;;;;;;;;;;;;7.70;52.22;93641.06;5034736;28;19917;-79
2020/12/11 11:33:54;;;;;;;;;;;;;;;7.79;52.44;93630.41;5033937;28;20483;-80
2020/12/11 11:36:20;;;;;;;;;;;;;;;7.84;52.01;93629.47;5033813;28;20016;-80
2020/12/11 11:38:45;;;;;;;;;;;;;;;7.95;51.70;93627.97;5034303;28;20016;-80
2020/12/11 11:41:10;;;;;;;;;;;;;;;7.88;51.42;93628.47;5033886;28;19986;-80
2020/12/11 11:46:03;;;;;;;;;;;;;;;7.72;51.99;93625.63;5035556;28;19917;-80
2020/12/11 11:48:29;;;;;;;;;;;;;;;7.84;51.67;93629.47;5033292;28;19917;-82
2020/12/11 11:51:04;;;;;;;;;;;;;;;7.91;51.89;93621.75;5035226;28;19917;-80
2020/12/11 11:53:29;;;;;;;;;;;;;;;7.43;51.91;93631.75;5033676;28;19921;-81
2020/12/11 11:55:55;;;;;;;;;;;;;;;7.54;52.37;93634.78;5033951;28;20362;-80
2020/12/11 11:58:20;;;;;;;;;;;;;;;7.74;52.25;93639.31;5033489;28;19917;-80
2020/12/11 12:00:46;;;;;;;;;;;;;;;7.75;51.97;93635.56;5033286;28;20016;-78
2020/12/11 12:03:11;;;;;;;;;;;;;;;7.69;51.53;93631.56;5032796;28;19948;-77
2020/12/11 12:05:36;;;;;;;;;;;;;;;7.69;51.66;93630.81;5032973;28;20015;-78
2020/12/11 12:08:01;;;;;;;;;;;;;;;7.50;52.30;93626.72;5032626;28;19925;-77
2020/12/11 12:10:27;;;;;;;;;;;;;;;7.28;52.45;93625.13;5032054;28;19918;-67
2020/12/11 12:12:52;;;;;;;;;;;;;;;7.17;52.75;93625.81;5031915;28;19968;-76
2020/12/11 12:15:23;;;;;;;;;;;;;;;7.12;52.41;93628.66;5033748;28;19917;-78
2020/12/11 12:20:55;;;;;;;;;;;;;;;6.71;53.17;93622.91;5024450;28;19921;-75
2020/12/11 12:30:58;;;;;;;;;;;;;;;6.37;55.49;93604.50;5032785;28;19917;-77
2020/12/11 12:38:54;;;;;;;;;;;;;;;5.95;57.65;93596.34;5033171;28;20446;-78
2020/12/11 12:43:56;;;;;;;;;;;;;;;5.58;58.05;93590.56;5033084;28;19923;-78
2020/12/11 12:46:22;;;;;;;;;;;;;;;5.60;58.31;93579.69;5031641;28;20014;-75
2020/12/11 12:48:47;;;;;;;;;;;;;;;5.52;58.85;93585.75;5031631;28;19921;-74
2020/12/11 12:51:12;;;;;;;;;;;;;;;5.30;59.13;93584.00;5032393;28;19929;-75
2020/12/11 12:53:38;;;;;;;;;;;;;;;5.27;59.69;93593.31;5032747;28;19917;-77
2020/12/11 12:59:13;;;;;;;;;;;;;;;5.21;59.88;93579.50;4990171;28;19925;-76
2020/12/11 13:04:40;;;;;;;;;;;;;;;5.40;60.41;93586.34;5015288;28;19937;-76
2020/12/11 13:07:06;;;;;;;;;;;;;;;5.38;60.29;93591.19;5031459;28;19917;-76
2020/12/11 13:09:32;;;;;;;;;;;;;;;5.42;59.93;93590.22;5031148;28;20007;-76
2020/12/11 13:11:57;;;;;;;;;;;;;;;5.51;59.15;93579.69;5031123;28;19916;-75
2020/12/11 13:14:22;;;;;;;;;;;;;;;5.57;58.88;93578.44;5031272;28;20266;-77
2020/12/11 13:16:48;;;;;;;;;;;;;;;5.37;59.52;93586.97;5031073;28;19967;-75
2020/12/11 13:19:15;;;;;;;;;;;;;;;5.24;59.46;93593.16;5030726;28;19913;-75
2020/12/11 13:21:56;;;;;;;;;;;;;;;5.36;59.35;93585.41;5030845;28;20370;-76
2020/12/11 13:27:09;;;;;;;;;;;;;;;5.44;58.98;93571.47;5032278;28;19920;-76
2020/12/11 13:29:34;;;;;;;;;;;;;;;5.52;59.08;93577.81;5030794;28;19921;-75
2020/12/11 13:32:00;;;;;;;;;;;;;;;5.59;59.16;93568.38;5030322;28;19917;-76
2020/12/11 13:34:26;;;;;;;;;;;;;;;5.67;59.04;93570.22;5030920;28;19963;-76
2020/12/11 13:36:51;;;;;;;;;;;;;;;5.73;59.26;93562.94;5030886;28;19917;-74
2020/12/11 13:39:16;;;;;;;;;;;;;;;5.83;59.29;93569.75;5030684;28;19971;-76
2020/12/11 13:41:41;;;;;;;;;;;;;;;5.98;59.08;93572.72;5030526;28;19963;-75
2020/12/11 13:44:06;;;;;;;;;;;;;;;6.05;58.76;93571.47;5030720;28;19917;-76
2020/12/11 13:46:32;;;;;;;;;;;;;;;5.93;58.60;93520.09;5030792;28;19960;-75